Mallie, KY (41836)

1:21 AM EST on December 20, 2014 (GMT -0500)
Middle Creek VFD Station 2 | Change Station
CLOSE
Current Station
Personal Weather Station
Location: Prestonsburg, KY
Elevation: 689 ft
Nearby Weather Stations

Elev 689 ft 37.64 °N, 82.85 °W | Updated 6 minutes ago

Partly Cloudy
Partly Cloudy
26.6 °F
Feels Like 27 °F
N
0.0
Wind Variable Wind from North

Today
High -- | Low -- °F
--% Chance of Precip.
Yesterday
High -- | Low -- °F
Precip. -- in
7:41 AM 5:17 PM
Waning Crescent, 4% visible
Pressure 30.25 in
Visibility 9.0 miles
Clouds Clear
Windchill 27 °F
Dew Point 25 °F
Humidity 92%
Rainfall 0.00 in
Snow Depth Not available.
UV 0 out of 12
Pollen .10 out of 12
Air Quality Not available.
Flu Activity Not available.
METAR KJKL 200553Z AUTO 06003KT 9SM CLR M03/M06 A3021 RMK AO2 SLP241 T10281061 11006 21028 56005

More Conditions Fewer Conditions

Pressure 30.25 in
Visibility 9.0 miles
Clouds Clear
Windchill 27 °F
Dew Point 25 °F
Humidity 92%
Rainfall 0.00 in
Snow Depth Not available.
UV 0 out of 12
Pollen .10 out of 12
Air Quality Not available.
Flu Activity Not available.
METAR KJKL 200553Z AUTO 06003KT 9SM CLR M03/M06 A3021 RMK AO2 SLP241 T10281061 11006 21028 56005

More Conditions Fewer Conditions

10-Day Weather Forecast

Almanac

Astronomy

Dec. 20, 2014 Rise Set
Actual Time
Civil Twilight
Nautical Twilight
Astronomical Twilight
Moon
Length of Visible Light
Length of Day
Tomorrow will be .
, % of the Moon is Illuminated

Today's Extremes

State Highs State Lows

Community

WunderPhotos

Upload Photos

1,779,144 photos uploaded!

WunderBlogs® & News

Nearby

Air Quality

  Air Quality AQ Index Pollutant
Not available.

Snow Depth

Station Depth Elevation

Earthquake Activity

City Distance Mag. Time & Date
Minimum magnitude displayed is 2.5.

Coastal Water Temperatures

Place Temperature

Nearby Weather Stations